sensor_id;sensor_type;location;lat;lon;timestamp;P1;durP1;ratioP1;P2;durP2;ratioP2
41446;SDS011;27185;52.040;4.490;2023-02-28T00:00:49;3.85;;;1.40;;
41446;SDS011;27185;52.040;4.490;2023-02-28T00:03:35;3.72;;;1.55;;
41446;SDS011;27185;52.040;4.490;2023-02-28T00:06:21;5.80;;;1.60;;
41446;SDS011;27185;52.040;4.490;2023-02-28T00:09:07;6.43;;;1.80;;
41446;SDS011;27185;52.040;4.490;2023-02-28T00:11:52;5.68;;;1.67;;
41446;SDS011;27185;52.040;4.490;2023-02-28T00:14:38;4.07;;;1.52;;
41446;SDS011;27185;52.040;4.490;2023-02-28T00:17:23;9.70;;;2.40;;
41446;SDS011;27185;52.040;4.490;2023-02-28T00:20:09;6.88;;;1.80;;
41446;SDS011;27185;52.040;4.490;2023-02-28T00:22:56;3.63;;;1.40;;
41446;SDS011;27185;52.040;4.490;2023-02-28T00:25:42;4.97;;;1.33;;
41446;SDS011;27185;52.040;4.490;2023-02-28T00:28:28;6.22;;;2.30;;
41446;SDS011;27185;52.040;4.490;2023-02-28T00:31:13;4.60;;;1.92;;
41446;SDS011;27185;52.040;4.490;2023-02-28T00:33:59;6.22;;;1.83;;
41446;SDS011;27185;52.040;4.490;2023-02-28T00:36:44;4.68;;;1.88;;
41446;SDS011;27185;52.040;4.490;2023-02-28T00:39:34;8.32;;;2.13;;
41446;SDS011;27185;52.040;4.490;2023-02-28T00:42:21;7.40;;;2.20;;
41446;SDS011;27185;52.040;4.490;2023-02-28T00:45:07;4.43;;;1.73;;
41446;SDS011;27185;52.040;4.490;2023-02-28T00:47:53;5.57;;;1.77;;
41446;SDS011;27185;52.040;4.490;2023-02-28T00:50:38;4.75;;;1.50;;
41446;SDS011;27185;52.040;4.490;2023-02-28T00:53:24;4.63;;;2.00;;
41446;SDS011;27185;52.040;4.490;2023-02-28T00:56:10;4.88;;;1.70;;
41446;SDS011;27185;52.040;4.490;2023-02-28T00:58:55;5.90;;;1.45;;
41446;SDS011;27185;52.040;4.490;2023-02-28T01:01:41;4.63;;;1.67;;
41446;SDS011;27185;52.040;4.490;2023-02-28T01:04:28;3.30;;;1.58;;
41446;SDS011;27185;52.040;4.490;2023-02-28T01:07:14;4.25;;;1.50;;
41446;SDS011;27185;52.040;4.490;2023-02-28T01:09:59;5.25;;;1.42;;
41446;SDS011;27185;52.040;4.490;2023-02-28T01:12:45;6.80;;;1.40;;
41446;SDS011;27185;52.040;4.490;2023-02-28T01:15:31;4.80;;;1.50;;
41446;SDS011;27185;52.040;4.490;2023-02-28T01:18:17;6.20;;;2.25;;
41446;SDS011;27185;52.040;4.490;2023-02-28T01:21:07;5.10;;;1.77;;
41446;SDS011;27185;52.040;4.490;2023-02-28T01:23:55;5.60;;;1.80;;
41446;SDS011;27185;52.040;4.490;2023-02-28T01:26:42;4.55;;;1.83;;
41446;SDS011;27185;52.040;4.490;2023-02-28T01:29:27;5.43;;;1.50;;
41446;SDS011;27185;52.040;4.490;2023-02-28T01:32:13;3.03;;;1.63;;
41446;SDS011;27185;52.040;4.490;2023-02-28T01:34:58;5.70;;;1.65;;
41446;SDS011;27185;52.040;4.490;2023-02-28T01:37:44;5.60;;;1.90;;
41446;SDS011;27185;52.040;4.490;2023-02-28T01:40:30;10.10;;;2.50;;
41446;SDS011;27185;52.040;4.490;2023-02-28T01:43:22;4.40;;;2.20;;
41446;SDS011;27185;52.040;4.490;2023-02-28T01:46:10;6.22;;;2.05;;
41446;SDS011;27185;52.040;4.490;2023-02-28T01:49:08;5.63;;;2.08;;
41446;SDS011;27185;52.040;4.490;2023-02-28T01:51:59;10.52;;;2.60;;
41446;SDS011;27185;52.040;4.490;2023-02-28T01:54:46;9.70;;;2.65;;
41446;SDS011;27185;52.040;4.490;2023-02-28T01:57:46;5.20;;;2.60;;
41446;SDS011;27185;52.040;4.490;2023-02-28T02:00:36;7.95;;;2.67;;
41446;SDS011;27185;52.040;4.490;2023-02-28T02:03:23;7.97;;;2.40;;
41446;SDS011;27185;52.040;4.490;2023-02-28T02:06:09;6.18;;;2.78;;
41446;SDS011;27185;52.040;4.490;2023-02-28T02:08:55;5.43;;;2.20;;
41446;SDS011;27185;52.040;4.490;2023-02-28T02:11:41;5.32;;;2.08;;
41446;SDS011;27185;52.040;4.490;2023-02-28T02:15:31;6.55;;;2.28;;
41446;SDS011;27185;52.040;4.490;2023-02-28T02:17:53;6.20;;;2.30;;
41446;SDS011;27185;52.040;4.490;2023-02-28T02:20:46;7.40;;;2.58;;
41446;SDS011;27185;52.040;4.490;2023-02-28T02:24:02;9.52;;;3.03;;
41446;SDS011;27185;52.040;4.490;2023-02-28T02:27:20;9.45;;;2.92;;
41446;SDS011;27185;52.040;4.490;2023-02-28T02:30:33;6.13;;;2.60;;
41446;SDS011;27185;52.040;4.490;2023-02-28T02:36:28;12.80;;;3.15;;
41446;SDS011;27185;52.040;4.490;2023-02-28T02:39:21;8.10;;;3.00;;
41446;SDS011;27185;52.040;4.490;2023-02-28T02:42:20;5.80;;;2.63;;
41446;SDS011;27185;52.040;4.490;2023-02-28T02:45:11;6.53;;;2.95;;
41446;SDS011;27185;52.040;4.490;2023-02-28T02:48:03;7.97;;;2.58;;
41446;SDS011;27185;52.040;4.490;2023-02-28T02:50:55;5.53;;;2.78;;
41446;SDS011;27185;52.040;4.490;2023-02-28T02:53:49;8.07;;;2.25;;
41446;SDS011;27185;52.040;4.490;2023-02-28T02:56:59;8.52;;;2.63;;
41446;SDS011;27185;52.040;4.490;2023-02-28T02:59:50;10.07;;;3.67;;
41446;SDS011;27185;52.040;4.490;2023-02-28T03:02:38;8.18;;;2.33;;
41446;SDS011;27185;52.040;4.490;2023-02-28T03:05:26;7.95;;;2.63;;
41446;SDS011;27185;52.040;4.490;2023-02-28T03:08:18;5.25;;;3.08;;
41446;SDS011;27185;52.040;4.490;2023-02-28T03:11:05;8.52;;;3.28;;
41446;SDS011;27185;52.040;4.490;2023-02-28T03:23:56;10.07;;;3.13;;
41446;SDS011;27185;52.040;4.490;2023-02-28T03:26:54;7.10;;;3.45;;
41446;SDS011;27185;52.040;4.490;2023-02-28T03:29:56;11.32;;;3.60;;
41446;SDS011;27185;52.040;4.490;2023-02-28T03:32:57;8.98;;;3.13;;
41446;SDS011;27185;52.040;4.490;2023-02-28T03:36:06;9.15;;;3.83;;
41446;SDS011;27185;52.040;4.490;2023-02-28T03:38:58;5.93;;;2.88;;
41446;SDS011;27185;52.040;4.490;2023-02-28T03:41:52;6.80;;;3.53;;
41446;SDS011;27185;52.040;4.490;2023-02-28T03:44:53;13.35;;;4.68;;
41446;SDS011;27185;52.040;4.490;2023-02-28T03:48:01;6.50;;;4.07;;
41446;SDS011;27185;52.040;4.490;2023-02-28T03:50:53;8.05;;;3.10;;
41446;SDS011;27185;52.040;4.490;2023-02-28T03:53:44;6.78;;;3.20;;
41446;SDS011;27185;52.040;4.490;2023-02-28T03:56:40;7.25;;;3.90;;
41446;SDS011;27185;52.040;4.490;2023-02-28T04:00:19;7.85;;;4.78;;
41446;SDS011;27185;52.040;4.490;2023-02-28T04:02:42;8.25;;;3.05;;
41446;SDS011;27185;52.040;4.490;2023-02-28T04:05:28;5.38;;;3.28;;
41446;SDS011;27185;52.040;4.490;2023-02-28T04:08:15;5.07;;;3.10;;
41446;SDS011;27185;52.040;4.490;2023-02-28T04:11:03;6.07;;;3.33;;
41446;SDS011;27185;52.040;4.490;2023-02-28T04:13:53;7.00;;;3.13;;
41446;SDS011;27185;52.040;4.490;2023-02-28T04:16:40;9.80;;;4.00;;
41446;SDS011;27185;52.040;4.490;2023-02-28T04:19:26;7.40;;;3.57;;
41446;SDS011;27185;52.040;4.490;2023-02-28T04:22:12;5.63;;;2.97;;
41446;SDS011;27185;52.040;4.490;2023-02-28T04:24:58;6.68;;;3.50;;
41446;SDS011;27185;52.040;4.490;2023-02-28T04:27:44;6.18;;;3.15;;
41446;SDS011;27185;52.040;4.490;2023-02-28T04:30:29;6.43;;;3.45;;
41446;SDS011;27185;52.040;4.490;2023-02-28T04:33:17;5.97;;;3.70;;
41446;SDS011;27185;52.040;4.490;2023-02-28T04:36:07;7.18;;;3.15;;
41446;SDS011;27185;52.040;4.490;2023-02-28T04:38:53;7.82;;;3.20;;
41446;SDS011;27185;52.040;4.490;2023-02-28T04:41:39;9.32;;;3.83;;
41446;SDS011;27185;52.040;4.490;2023-02-28T04:44:25;6.43;;;3.55;;
41446;SDS011;27185;52.040;4.490;2023-02-28T04:47:10;8.68;;;3.75;;
41446;SDS011;27185;52.040;4.490;2023-02-28T04:49:56;6.88;;;3.58;;
41446;SDS011;27185;52.040;4.490;2023-02-28T04:52:42;8.75;;;4.03;;
41446;SDS011;27185;52.040;4.490;2023-02-28T04:55:27;6.28;;;4.20;;
41446;SDS011;27185;52.040;4.490;2023-02-28T04:58:13;6.60;;;4.13;;
41446;SDS011;27185;52.040;4.490;2023-02-28T05:01:03;8.35;;;3.45;;
41446;SDS011;27185;52.040;4.490;2023-02-28T05:03:58;6.63;;;3.80;;
41446;SDS011;27185;52.040;4.490;2023-02-28T05:06:46;9.18;;;3.30;;
41446;SDS011;27185;52.040;4.490;2023-02-28T05:09:32;10.35;;;3.90;;
41446;SDS011;27185;52.040;4.490;2023-02-28T05:12:18;7.10;;;4.13;;
41446;SDS011;27185;52.040;4.490;2023-02-28T05:15:07;6.38;;;3.92;;
41446;SDS011;27185;52.040;4.490;2023-02-28T05:17:57;7.00;;;4.20;;
41446;SDS011;27185;52.040;4.490;2023-02-28T05:20:43;8.30;;;4.22;;
41446;SDS011;27185;52.040;4.490;2023-02-28T05:23:28;6.55;;;4.00;;
41446;SDS011;27185;52.040;4.490;2023-02-28T05:26:14;6.57;;;3.83;;
41446;SDS011;27185;52.040;4.490;2023-02-28T05:29:00;6.57;;;3.72;;
41446;SDS011;27185;52.040;4.490;2023-02-28T05:31:45;7.35;;;4.20;;
41446;SDS011;27185;52.040;4.490;2023-02-28T05:34:31;8.20;;;4.05;;
41446;SDS011;27185;52.040;4.490;2023-02-28T05:37:17;7.15;;;4.30;;
41446;SDS011;27185;52.040;4.490;2023-02-28T05:40:03;9.52;;;3.92;;
41446;SDS011;27185;52.040;4.490;2023-02-28T05:42:55;8.40;;;4.40;;
41446;SDS011;27185;52.040;4.490;2023-02-28T05:45:40;7.93;;;4.68;;
41446;SDS011;27185;52.040;4.490;2023-02-28T05:48:26;11.48;;;5.15;;
41446;SDS011;27185;52.040;4.490;2023-02-28T05:51:11;9.43;;;5.05;;
41446;SDS011;27185;52.040;4.490;2023-02-28T05:54:00;9.90;;;6.22;;
41446;SDS011;27185;52.040;4.490;2023-02-28T05:56:46;10.02;;;5.97;;
41446;SDS011;27185;52.040;4.490;2023-02-28T05:59:32;10.25;;;6.18;;
41446;SDS011;27185;52.040;4.490;2023-02-28T06:02:18;7.82;;;5.93;;
41446;SDS011;27185;52.040;4.490;2023-02-28T06:05:03;10.40;;;5.30;;
41446;SDS011;27185;52.040;4.490;2023-02-28T06:07:49;7.78;;;5.10;;
41446;SDS011;27185;52.040;4.490;2023-02-28T06:10:35;8.10;;;5.03;;
41446;SDS011;27185;52.040;4.490;2023-02-28T06:13:21;8.05;;;4.90;;
41446;SDS011;27185;52.040;4.490;2023-02-28T06:16:07;7.72;;;5.20;;
41446;SDS011;27185;52.040;4.490;2023-02-28T06:18:56;9.35;;;5.00;;
41446;SDS011;27185;52.040;4.490;2023-02-28T06:21:43;6.63;;;4.93;;
41446;SDS011;27185;52.040;4.490;2023-02-28T06:24:29;13.23;;;6.70;;
41446;SDS011;27185;52.040;4.490;2023-02-28T06:27:16;9.02;;;6.13;;
41446;SDS011;27185;52.040;4.490;2023-02-28T06:30:01;11.10;;;6.43;;
41446;SDS011;27185;52.040;4.490;2023-02-28T06:32:47;9.48;;;6.00;;
41446;SDS011;27185;52.040;4.490;2023-02-28T06:35:34;9.98;;;6.03;;
41446;SDS011;27185;52.040;4.490;2023-02-28T06:38:20;8.35;;;5.60;;
41446;SDS011;27185;52.040;4.490;2023-02-28T06:41:05;10.38;;;4.88;;
41446;SDS011;27185;52.040;4.490;2023-02-28T06:43:52;11.13;;;4.75;;
41446;SDS011;27185;52.040;4.490;2023-02-28T06:46:38;8.32;;;4.47;;
41446;SDS011;27185;52.040;4.490;2023-02-28T06:49:25;5.07;;;3.87;;
41446;SDS011;27185;52.040;4.490;2023-02-28T06:52:11;9.13;;;4.43;;
41446;SDS011;27185;52.040;4.490;2023-02-28T06:54:56;5.57;;;3.78;;
41446;SDS011;27185;52.040;4.490;2023-02-28T07:00:30;5.70;;;3.28;;
41446;SDS011;27185;52.040;4.490;2023-02-28T07:03:16;5.13;;;2.63;;
41446;SDS011;27185;52.040;4.490;2023-02-28T07:06:02;5.97;;;2.53;;
41446;SDS011;27185;52.040;4.490;2023-02-28T07:08:50;5.15;;;2.47;;
41446;SDS011;27185;52.040;4.490;2023-02-28T07:11:37;5.20;;;3.03;;
41446;SDS011;27185;52.040;4.490;2023-02-28T07:14:23;5.18;;;2.95;;
41446;SDS011;27185;52.040;4.490;2023-02-28T07:17:09;6.28;;;3.20;;
41446;SDS011;27185;52.040;4.490;2023-02-28T07:19:56;7.10;;;3.28;;
41446;SDS011;27185;52.040;4.490;2023-02-28T07:22:42;3.60;;;2.42;;
41446;SDS011;27185;52.040;4.490;2023-02-28T07:25:28;4.95;;;2.92;;
41446;SDS011;27185;52.040;4.490;2023-02-28T07:28:14;5.30;;;2.60;;
41446;SDS011;27185;52.040;4.490;2023-02-28T07:31:04;6.20;;;3.30;;
41446;SDS011;27185;52.040;4.490;2023-02-28T07:33:50;5.88;;;2.90;;
41446;SDS011;27185;52.040;4.490;2023-02-28T07:36:35;4.70;;;2.58;;
41446;SDS011;27185;52.040;4.490;2023-02-28T07:39:21;5.35;;;3.20;;
41446;SDS011;27185;52.040;4.490;2023-02-28T07:42:08;5.63;;;2.83;;
41446;SDS011;27185;52.040;4.490;2023-02-28T07:44:56;6.10;;;3.00;;
41446;SDS011;27185;52.040;4.490;2023-02-28T07:47:43;4.93;;;2.47;;
41446;SDS011;27185;52.040;4.490;2023-02-28T07:50:29;4.97;;;2.53;;
41446;SDS011;27185;52.040;4.490;2023-02-28T07:53:15;4.57;;;2.53;;
41446;SDS011;27185;52.040;4.490;2023-02-28T07:56:01;7.43;;;2.40;;
41446;SDS011;27185;52.040;4.490;2023-02-28T07:58:47;6.97;;;3.20;;
41446;SDS011;27185;52.040;4.490;2023-02-28T08:01:32;6.05;;;3.35;;
41446;SDS011;27185;52.040;4.490;2023-02-28T08:04:18;6.57;;;2.75;;
41446;SDS011;27185;52.040;4.490;2023-02-28T08:07:04;4.50;;;3.03;;
41446;SDS011;27185;52.040;4.490;2023-02-28T08:09:50;5.50;;;3.30;;
41446;SDS011;27185;52.040;4.490;2023-02-28T08:12:35;5.53;;;2.78;;
41446;SDS011;27185;52.040;4.490;2023-02-28T08:15:21;5.90;;;3.38;;
41446;SDS011;27185;52.040;4.490;2023-02-28T08:18:06;4.28;;;2.78;;
41446;SDS011;27185;52.040;4.490;2023-02-28T08:20:52;5.90;;;3.35;;
41446;SDS011;27185;52.040;4.490;2023-02-28T08:23:38;4.28;;;2.85;;
41446;SDS011;27185;52.040;4.490;2023-02-28T08:26:23;7.88;;;5.07;;
41446;SDS011;27185;52.040;4.490;2023-02-28T08:29:09;8.18;;;4.82;;
41446;SDS011;27185;52.040;4.490;2023-02-28T08:31:55;12.60;;;6.18;;
41446;SDS011;27185;52.040;4.490;2023-02-28T08:34:40;12.73;;;7.30;;
41446;SDS011;27185;52.040;4.490;2023-02-28T08:37:26;17.42;;;8.77;;
41446;SDS011;27185;52.040;4.490;2023-02-28T08:40:12;17.77;;;9.20;;
41446;SDS011;27185;52.040;4.490;2023-02-28T08:43:02;15.40;;;8.88;;
41446;SDS011;27185;52.040;4.490;2023-02-28T08:45:50;20.92;;;11.35;;
41446;SDS011;27185;52.040;4.490;2023-02-28T08:48:37;25.90;;;14.90;;
41446;SDS011;27185;52.040;4.490;2023-02-28T08:51:22;28.13;;;16.38;;
41446;SDS011;27185;52.040;4.490;2023-02-28T08:57:04;17.02;;;11.32;;
41446;SDS011;27185;52.040;4.490;2023-02-28T08:59:50;16.63;;;9.52;;
41446;SDS011;27185;52.040;4.490;2023-02-28T09:02:36;17.45;;;8.98;;
41446;SDS011;27185;52.040;4.490;2023-02-28T09:05:22;12.90;;;7.22;;
41446;SDS011;27185;52.040;4.490;2023-02-28T09:08:07;10.63;;;6.53;;
41446;SDS011;27185;52.040;4.490;2023-02-28T09:10:53;12.40;;;6.72;;
41446;SDS011;27185;52.040;4.490;2023-02-28T09:13:40;10.05;;;6.43;;
41446;SDS011;27185;52.040;4.490;2023-02-28T09:16:26;11.00;;;5.45;;
41446;SDS011;27185;52.040;4.490;2023-02-28T09:19:12;9.63;;;4.20;;
41446;SDS011;27185;52.040;4.490;2023-02-28T09:21:58;6.93;;;4.55;;
41446;SDS011;27185;52.040;4.490;2023-02-28T09:24:43;8.18;;;4.45;;
41446;SDS011;27185;52.040;4.490;2023-02-28T09:27:29;5.15;;;3.33;;
41446;SDS011;27185;52.040;4.490;2023-02-28T09:30:15;9.93;;;4.05;;
41446;SDS011;27185;52.040;4.490;2023-02-28T09:33:01;6.45;;;4.03;;
41446;SDS011;27185;52.040;4.490;2023-02-28T09:35:50;8.57;;;4.70;;
41446;SDS011;27185;52.040;4.490;2023-02-28T09:38:36;7.43;;;4.28;;
41446;SDS011;27185;52.040;4.490;2023-02-28T09:41:23;8.98;;;4.38;;
41446;SDS011;27185;52.040;4.490;2023-02-28T09:44:15;9.40;;;4.18;;
41446;SDS011;27185;52.040;4.490;2023-02-28T09:47:26;9.15;;;3.83;;
41446;SDS011;27185;52.040;4.490;2023-02-28T09:53:28;8.90;;;5.63;;
41446;SDS011;27185;52.040;4.490;2023-02-28T09:56:20;8.30;;;4.55;;
41446;SDS011;27185;52.040;4.490;2023-02-28T10:02:12;7.35;;;4.55;;
41446;SDS011;27185;52.040;4.490;2023-02-28T10:05:15;7.95;;;3.97;;
41446;SDS011;27185;52.040;4.490;2023-02-28T10:10:57;5.60;;;3.17;;
41446;SDS011;27185;52.040;4.490;2023-02-28T10:13:59;5.45;;;3.33;;
41446;SDS011;27185;52.040;4.490;2023-02-28T10:16:56;5.60;;;3.05;;
41446;SDS011;27185;52.040;4.490;2023-02-28T10:22:49;5.68;;;3.95;;
41446;SDS011;27185;52.040;4.490;2023-02-28T10:25:39;12.68;;;5.18;;
41446;SDS011;27185;52.040;4.490;2023-02-28T10:28:25;8.20;;;4.30;;
41446;SDS011;27185;52.040;4.490;2023-02-28T10:31:18;10.73;;;3.75;;
41446;SDS011;27185;52.040;4.490;2023-02-28T10:34:04;5.25;;;3.70;;
41446;SDS011;27185;52.040;4.490;2023-02-28T10:36:51;7.03;;;3.78;;
41446;SDS011;27185;52.040;4.490;2023-02-28T10:39:41;6.15;;;3.70;;
41446;SDS011;27185;52.040;4.490;2023-02-28T10:42:30;4.40;;;2.28;;
41446;SDS011;27185;52.040;4.490;2023-02-28T10:45:17;5.47;;;3.50;;
41446;SDS011;27185;52.040;4.490;2023-02-28T10:51:00;6.70;;;3.33;;
41446;SDS011;27185;52.040;4.490;2023-02-28T10:53:49;8.18;;;3.95;;
41446;SDS011;27185;52.040;4.490;2023-02-28T10:56:40;6.18;;;2.78;;
41446;SDS011;27185;52.040;4.490;2023-02-28T10:59:30;4.38;;;2.40;;
41446;SDS011;27185;52.040;4.490;2023-02-28T11:02:30;5.13;;;3.20;;
41446;SDS011;27185;52.040;4.490;2023-02-28T11:08:17;5.50;;;3.00;;
41446;SDS011;27185;52.040;4.490;2023-02-28T11:11:04;4.97;;;3.10;;
41446;SDS011;27185;52.040;4.490;2023-02-28T11:13:52;5.43;;;3.25;;
41446;SDS011;27185;52.040;4.490;2023-02-28T11:16:40;3.78;;;2.58;;
41446;SDS011;27185;52.040;4.490;2023-02-28T11:19:45;4.50;;;2.72;;
41446;SDS011;27185;52.040;4.490;2023-02-28T11:22:33;5.82;;;3.47;;
41446;SDS011;27185;52.040;4.490;2023-02-28T11:25:35;5.15;;;2.60;;
41446;SDS011;27185;52.040;4.490;2023-02-28T11:28:24;5.35;;;2.83;;
41446;SDS011;27185;52.040;4.490;2023-02-28T11:34:01;4.47;;;2.60;;
41446;SDS011;27185;52.040;4.490;2023-02-28T11:37:09;4.88;;;2.13;;
41446;SDS011;27185;52.040;4.490;2023-02-28T11:40:01;3.20;;;2.20;;
41446;SDS011;27185;52.040;4.490;2023-02-28T11:46:11;4.57;;;2.20;;
41446;SDS011;27185;52.040;4.490;2023-02-28T11:55:14;3.45;;;1.95;;
41446;SDS011;27185;52.040;4.490;2023-02-28T12:12:15;3.17;;;1.43;;
41446;SDS011;27185;52.040;4.490;2023-02-28T12:26:36;2.08;;;1.10;;
41446;SDS011;27185;52.040;4.490;2023-02-28T12:29:28;2.40;;;1.00;;
41446;SDS011;27185;52.040;4.490;2023-02-28T12:32:29;3.10;;;0.95;;
41446;SDS011;27185;52.040;4.490;2023-02-28T12:35:24;2.70;;;1.17;;
41446;SDS011;27185;52.040;4.490;2023-02-28T12:38:27;2.13;;;1.33;;
41446;SDS011;27185;52.040;4.490;2023-02-28T12:41:19;3.08;;;1.58;;
41446;SDS011;27185;52.040;4.490;2023-02-28T12:44:34;3.00;;;1.13;;
41446;SDS011;27185;52.040;4.490;2023-02-28T12:47:20;4.35;;;1.10;;
41446;SDS011;27185;52.040;4.490;2023-02-28T12:50:06;3.50;;;1.33;;
41446;SDS011;27185;52.040;4.490;2023-02-28T12:56:19;2.97;;;1.35;;
41446;SDS011;27185;52.040;4.490;2023-02-28T13:06:23;1.50;;;0.70;;
41446;SDS011;27185;52.040;4.490;2023-02-28T13:09:01;1.90;;;0.80;;
41446;SDS011;27185;52.040;4.490;2023-02-28T13:11:48;2.38;;;0.93;;
41446;SDS011;27185;52.040;4.490;2023-02-28T13:14:36;2.70;;;0.90;;
41446;SDS011;27185;52.040;4.490;2023-02-28T13:17:23;2.22;;;0.95;;
41446;SDS011;27185;52.040;4.490;2023-02-28T13:20:18;2.20;;;0.90;;
41446;SDS011;27185;52.040;4.490;2023-02-28T13:23:16;2.17;;;0.80;;
41446;SDS011;27185;52.040;4.490;2023-02-28T13:27:10;1.80;;;0.90;;
41446;SDS011;27185;52.040;4.490;2023-02-28T13:29:38;5.03;;;1.10;;
41446;SDS011;27185;52.040;4.490;2023-02-28T13:32:34;2.08;;;1.10;;
41446;SDS011;27185;52.040;4.490;2023-02-28T13:35:34;1.48;;;0.80;;
41446;SDS011;27185;52.040;4.490;2023-02-28T13:38:22;2.40;;;0.95;;
41446;SDS011;27185;52.040;4.490;2023-02-28T13:49:50;2.30;;;1.10;;
41446;SDS011;27185;52.040;4.490;2023-02-28T13:52:36;1.95;;;0.98;;
41446;SDS011;27185;52.040;4.490;2023-02-28T13:58:41;2.35;;;1.00;;
41446;SDS011;27185;52.040;4.490;2023-02-28T14:01:43;1.75;;;0.88;;
41446;SDS011;27185;52.040;4.490;2023-02-28T14:07:53;1.50;;;0.90;;
41446;SDS011;27185;52.040;4.490;2023-02-28T14:10:46;1.88;;;0.93;;
41446;SDS011;27185;52.040;4.490;2023-02-28T14:13:37;2.67;;;1.40;;
41446;SDS011;27185;52.040;4.490;2023-02-28T14:16:36;3.13;;;1.10;;
41446;SDS011;27185;52.040;4.490;2023-02-28T14:19:26;2.33;;;1.23;;
41446;SDS011;27185;52.040;4.490;2023-02-28T14:25:10;3.63;;;0.95;;
41446;SDS011;27185;52.040;4.490;2023-02-28T14:31:12;2.45;;;0.98;;
41446;SDS011;27185;52.040;4.490;2023-02-28T14:37:09;3.40;;;1.20;;
41446;SDS011;27185;52.040;4.490;2023-02-28T14:40:00;2.80;;;1.20;;
41446;SDS011;27185;52.040;4.490;2023-02-28T14:42:56;2.42;;;1.13;;
41446;SDS011;27185;52.040;4.490;2023-02-28T14:45:48;2.78;;;1.10;;
41446;SDS011;27185;52.040;4.490;2023-02-28T14:48:36;2.10;;;0.95;;
41446;SDS011;27185;52.040;4.490;2023-02-28T14:51:23;3.65;;;0.90;;
41446;SDS011;27185;52.040;4.490;2023-02-28T14:54:12;2.92;;;1.00;;
41446;SDS011;27185;52.040;4.490;2023-02-28T15:00:17;2.40;;;1.00;;
41446;SDS011;27185;52.040;4.490;2023-02-28T15:03:21;2.17;;;0.88;;
41446;SDS011;27185;52.040;4.490;2023-02-28T15:06:17;2.08;;;0.82;;
41446;SDS011;27185;52.040;4.490;2023-02-28T15:09:07;2.03;;;1.02;;
41446;SDS011;27185;52.040;4.490;2023-02-28T15:11:54;3.30;;;1.10;;
41446;SDS011;27185;52.040;4.490;2023-02-28T15:14:42;1.50;;;1.00;;
41446;SDS011;27185;52.040;4.490;2023-02-28T15:17:28;2.90;;;1.10;;
41446;SDS011;27185;52.040;4.490;2023-02-28T15:20:14;3.42;;;1.30;;
41446;SDS011;27185;52.040;4.490;2023-02-28T15:23:01;3.67;;;1.10;;
41446;SDS011;27185;52.040;4.490;2023-02-28T15:25:47;2.05;;;1.00;;
41446;SDS011;27185;52.040;4.490;2023-02-28T15:28:35;2.78;;;1.10;;
41446;SDS011;27185;52.040;4.490;2023-02-28T15:31:23;3.95;;;1.73;;
41446;SDS011;27185;52.040;4.490;2023-02-28T15:34:19;2.95;;;1.20;;
41446;SDS011;27185;52.040;4.490;2023-02-28T15:43:18;3.17;;;0.98;;
41446;SDS011;27185;52.040;4.490;2023-02-28T15:46:11;2.17;;;1.08;;
41446;SDS011;27185;52.040;4.490;2023-02-28T15:48:59;3.40;;;1.20;;
41446;SDS011;27185;52.040;4.490;2023-02-28T15:51:44;3.58;;;1.33;;
41446;SDS011;27185;52.040;4.490;2023-02-28T15:54:32;2.50;;;1.20;;
41446;SDS011;27185;52.040;4.490;2023-02-28T15:57:23;3.30;;;1.13;;
41446;SDS011;27185;52.040;4.490;2023-02-28T16:00:14;2.35;;;1.00;;
41446;SDS011;27185;52.040;4.490;2023-02-28T16:03:01;2.35;;;1.02;;
41446;SDS011;27185;52.040;4.490;2023-02-28T16:09:13;3.35;;;1.60;;
41446;SDS011;27185;52.040;4.490;2023-02-28T16:12:01;3.40;;;1.30;;
41446;SDS011;27185;52.040;4.490;2023-02-28T16:14:49;4.25;;;1.23;;
41446;SDS011;27185;52.040;4.490;2023-02-28T16:17:38;3.30;;;1.20;;
41446;SDS011;27185;52.040;4.490;2023-02-28T16:20:28;2.42;;;1.25;;
41446;SDS011;27185;52.040;4.490;2023-02-28T16:23:15;2.55;;;1.33;;
41446;SDS011;27185;52.040;4.490;2023-02-28T16:26:02;2.22;;;1.20;;
41446;SDS011;27185;52.040;4.490;2023-02-28T16:28:48;3.83;;;2.15;;
41446;SDS011;27185;52.040;4.490;2023-02-28T16:31:35;9.95;;;5.80;;
41446;SDS011;27185;52.040;4.490;2023-02-28T16:34:23;6.88;;;2.47;;
41446;SDS011;27185;52.040;4.490;2023-02-28T16:37:13;4.90;;;1.90;;
41446;SDS011;27185;52.040;4.490;2023-02-28T16:40:00;2.13;;;1.30;;
41446;SDS011;27185;52.040;4.490;2023-02-28T16:42:46;3.88;;;1.63;;
41446;SDS011;27185;52.040;4.490;2023-02-28T16:45:33;4.00;;;1.77;;
41446;SDS011;27185;52.040;4.490;2023-02-28T16:48:19;2.45;;;1.33;;
41446;SDS011;27185;52.040;4.490;2023-02-28T16:51:04;6.85;;;2.25;;
41446;SDS011;27185;52.040;4.490;2023-02-28T16:53:50;6.53;;;2.35;;
41446;SDS011;27185;52.040;4.490;2023-02-28T16:56:36;4.82;;;2.47;;
41446;SDS011;27185;52.040;4.490;2023-02-28T16:59:26;5.05;;;2.03;;
41446;SDS011;27185;52.040;4.490;2023-02-28T17:02:14;4.13;;;2.25;;
41446;SDS011;27185;52.040;4.490;2023-02-28T17:07:47;3.67;;;2.08;;
41446;SDS011;27185;52.040;4.490;2023-02-28T17:10:33;4.43;;;2.15;;
41446;SDS011;27185;52.040;4.490;2023-02-28T17:13:18;5.93;;;2.60;;
41446;SDS011;27185;52.040;4.490;2023-02-28T17:16:04;4.70;;;2.40;;
41446;SDS011;27185;52.040;4.490;2023-02-28T17:18:50;4.45;;;2.20;;
41446;SDS011;27185;52.040;4.490;2023-02-28T17:21:36;5.13;;;2.30;;
41446;SDS011;27185;52.040;4.490;2023-02-28T17:24:22;4.00;;;2.47;;
41446;SDS011;27185;52.040;4.490;2023-02-28T17:27:10;6.60;;;3.20;;
41446;SDS011;27185;52.040;4.490;2023-02-28T17:29:57;4.95;;;2.78;;
41446;SDS011;27185;52.040;4.490;2023-02-28T17:32:43;4.97;;;2.40;;
41446;SDS011;27185;52.040;4.490;2023-02-28T17:35:29;3.92;;;2.05;;
41446;SDS011;27185;52.040;4.490;2023-02-28T17:38:15;5.43;;;2.65;;
41446;SDS011;27185;52.040;4.490;2023-02-28T17:41:02;4.75;;;2.80;;
41446;SDS011;27185;52.040;4.490;2023-02-28T17:43:48;16.23;;;6.97;;
41446;SDS011;27185;52.040;4.490;2023-02-28T17:46:35;9.88;;;6.30;;
41446;SDS011;27185;52.040;4.490;2023-02-28T17:49:21;11.43;;;6.55;;
41446;SDS011;27185;52.040;4.490;2023-02-28T17:52:07;13.95;;;8.32;;
41446;SDS011;27185;52.040;4.490;2023-02-28T17:54:53;10.13;;;4.50;;
41446;SDS011;27185;52.040;4.490;2023-02-28T17:57:39;12.07;;;6.68;;
41446;SDS011;27185;52.040;4.490;2023-02-28T18:00:26;7.85;;;4.43;;
41446;SDS011;27185;52.040;4.490;2023-02-28T18:03:12;5.70;;;3.78;;
41446;SDS011;27185;52.040;4.490;2023-02-28T18:05:58;7.57;;;5.00;;
41446;SDS011;27185;52.040;4.490;2023-02-28T18:08:44;7.55;;;4.22;;
41446;SDS011;27185;52.040;4.490;2023-02-28T18:11:30;6.32;;;4.05;;
41446;SDS011;27185;52.040;4.490;2023-02-28T18:14:26;7.30;;;3.47;;
41446;SDS011;27185;52.040;4.490;2023-02-28T18:17:12;5.97;;;3.53;;
41446;SDS011;27185;52.040;4.490;2023-02-28T18:19:57;4.95;;;3.58;;
41446;SDS011;27185;52.040;4.490;2023-02-28T18:22:44;6.05;;;4.18;;
41446;SDS011;27185;52.040;4.490;2023-02-28T18:25:30;5.43;;;3.30;;
41446;SDS011;27185;52.040;4.490;2023-02-28T18:28:15;5.60;;;3.42;;
41446;SDS011;27185;52.040;4.490;2023-02-28T18:31:05;13.55;;;4.57;;
41446;SDS011;27185;52.040;4.490;2023-02-28T18:33:53;6.30;;;4.15;;
41446;SDS011;27185;52.040;4.490;2023-02-28T18:36:39;9.38;;;4.70;;
41446;SDS011;27185;52.040;4.490;2023-02-28T18:39:26;7.13;;;4.22;;
41446;SDS011;27185;52.040;4.490;2023-02-28T18:42:12;7.10;;;3.95;;
41446;SDS011;27185;52.040;4.490;2023-02-28T18:44:58;6.53;;;4.25;;
41446;SDS011;27185;52.040;4.490;2023-02-28T18:47:43;11.27;;;4.82;;
41446;SDS011;27185;52.040;4.490;2023-02-28T18:50:29;7.65;;;4.35;;
41446;SDS011;27185;52.040;4.490;2023-02-28T18:53:15;9.25;;;4.95;;
41446;SDS011;27185;52.040;4.490;2023-02-28T18:56:01;7.63;;;4.88;;
41446;SDS011;27185;52.040;4.490;2023-02-28T18:58:48;6.50;;;4.70;;
41446;SDS011;27185;52.040;4.490;2023-02-28T19:01:34;7.90;;;5.55;;